sensor_id;sensor_type;location;lat;lon;timestamp;pressure;altitude;pressure_sealevel;temperature;humidity
27425;BME280;15244;49.088;11.886;2024-03-23T00:56:21;95136.78;;;14.16;51.38
27425;BME280;15244;49.088;11.886;2024-03-23T01:01:22;95129.41;;;14.13;51.82
27425;BME280;15244;49.088;11.886;2024-03-23T01:06:22;95123.19;;;14.09;51.82
27425;BME280;15244;49.088;11.886;2024-03-23T01:11:23;95122.44;;;14.08;52.06
27425;BME280;15244;49.088;11.886;2024-03-23T01:16:23;95115.81;;;14.06;51.90
27425;BME280;15244;49.088;11.886;2024-03-23T01:21:24;95092.81;;;14.00;51.99
27425;BME280;15244;49.088;11.886;2024-03-23T01:26:25;95083.56;;;13.94;52.11
27425;BME280;15244;49.088;11.886;2024-03-23T01:31:26;95076.19;;;13.91;51.98
27425;BME280;15244;49.088;11.886;2024-03-23T01:36:26;95065.72;;;13.85;51.97
27425;BME280;15244;49.088;11.886;2024-03-23T01:41:27;95046.56;;;13.82;52.08
27425;BME280;15244;49.088;11.886;2024-03-23T01:46:28;95048.63;;;13.78;51.79
27425;BME280;15244;49.088;11.886;2024-03-23T01:51:28;95047.91;;;13.74;52.02
27425;BME280;15244;49.088;11.886;2024-03-23T01:56:32;95043.69;;;13.69;52.13
27425;BME280;15244;49.088;11.886;2024-03-23T02:01:37;95040.66;;;13.63;52.12
27425;BME280;15244;49.088;11.886;2024-03-23T02:06:37;95023.53;;;13.59;52.17
27425;BME280;15244;49.088;11.886;2024-03-23T02:11:38;95015.38;;;13.56;52.17
27425;BME280;15244;49.088;11.886;2024-03-23T02:16:39;94999.44;;;13.51;52.16
27425;BME280;15244;49.088;11.886;2024-03-23T02:21:39;95002.66;;;13.46;51.94
27425;BME280;15244;49.088;11.886;2024-03-23T02:26:40;95009.41;;;13.41;51.83
27425;BME280;15244;49.088;11.886;2024-03-23T02:31:41;94996.91;;;13.40;52.36
27425;BME280;15244;49.088;11.886;2024-03-23T02:36:41;94991.47;;;13.36;51.63
27425;BME280;15244;49.088;11.886;2024-03-23T02:41:42;94994.34;;;13.29;51.29
27425;BME280;15244;49.088;11.886;2024-03-23T02:46:43;94992.13;;;13.20;51.25
27425;BME280;15244;49.088;11.886;2024-03-23T02:51:44;94997.25;;;13.18;51.37
27425;BME280;15244;49.088;11.886;2024-03-23T02:56:45;94982.44;;;13.16;51.19
27425;BME280;15244;49.088;11.886;2024-03-23T03:01:46;94972.69;;;13.15;51.03
27425;BME280;15244;49.088;11.886;2024-03-23T03:06:47;94967.56;;;13.17;51.07
27425;BME280;15244;49.088;11.886;2024-03-23T03:11:48;94953.91;;;13.17;51.02
27425;BME280;15244;49.088;11.886;2024-03-23T03:16:48;94939.41;;;13.16;51.03
27425;BME280;15244;49.088;11.886;2024-03-23T03:21:49;94945.31;;;13.15;51.13
27425;BME280;15244;49.088;11.886;2024-03-23T03:26:50;94932.41;;;13.15;50.92
27425;BME280;15244;49.088;11.886;2024-03-23T03:31:50;94926.16;;;13.15;50.77
27425;BME280;15244;49.088;11.886;2024-03-23T03:36:51;94917.53;;;13.16;50.80
27425;BME280;15244;49.088;11.886;2024-03-23T03:41:52;94905.03;;;13.15;50.67
27425;BME280;15244;49.088;11.886;2024-03-23T03:46:52;94907.38;;;13.17;50.55
27425;BME280;15244;49.088;11.886;2024-03-23T03:51:54;94905.44;;;13.14;50.34
27425;BME280;15244;49.088;11.886;2024-03-23T03:56:55;94893.38;;;13.11;50.63
27425;BME280;15244;49.088;11.886;2024-03-23T04:01:55;94875.44;;;13.10;50.37
27425;BME280;15244;49.088;11.886;2024-03-23T04:07:00;94871.66;;;13.04;50.02
27425;BME280;15244;49.088;11.886;2024-03-23T04:12:01;94873.38;;;12.94;50.38
27425;BME280;15244;49.088;11.886;2024-03-23T04:17:01;94859.06;;;12.87;50.09
27425;BME280;15244;49.088;11.886;2024-03-23T04:22:03;94841.22;;;12.78;50.26
27425;BME280;15244;49.088;11.886;2024-03-23T04:27:04;94854.69;;;12.69;50.40
27425;BME280;15244;49.088;11.886;2024-03-23T04:32:05;94849.41;;;12.58;50.25
27425;BME280;15244;49.088;11.886;2024-03-23T04:37:06;94847.50;;;12.55;50.40
27425;BME280;15244;49.088;11.886;2024-03-23T04:42:06;94832.88;;;12.42;50.47
27425;BME280;15244;49.088;11.886;2024-03-23T04:47:07;94829.00;;;12.43;50.36
27425;BME280;15244;49.088;11.886;2024-03-23T04:52:08;94832.41;;;12.47;50.36
27425;BME280;15244;49.088;11.886;2024-03-23T04:57:08;94830.03;;;12.49;50.34
27425;BME280;15244;49.088;11.886;2024-03-23T05:02:09;94818.22;;;12.56;50.23
27425;BME280;15244;49.088;11.886;2024-03-23T05:07:11;94809.53;;;12.61;50.20
27425;BME280;15244;49.088;11.886;2024-03-23T05:12:12;94802.00;;;12.65;50.17
27425;BME280;15244;49.088;11.886;2024-03-23T05:17:12;94797.66;;;12.68;50.12
27425;BME280;15244;49.088;11.886;2024-03-23T05:22:13;94788.69;;;12.67;49.79
27425;BME280;15244;49.088;11.886;2024-03-23T05:27:14;94772.28;;;12.67;49.85
27425;BME280;15244;49.088;11.886;2024-03-23T05:32:15;94766.09;;;12.63;50.07
27425;BME280;15244;49.088;11.886;2024-03-23T05:37:16;94764.50;;;12.66;50.00
27425;BME280;15244;49.088;11.886;2024-03-23T05:42:17;94755.59;;;12.62;49.76
27425;BME280;15244;49.088;11.886;2024-03-23T05:47:18;94744.31;;;12.60;50.16
27425;BME280;15244;49.088;11.886;2024-03-23T05:52:18;94743.19;;;12.57;49.90
27425;BME280;15244;49.088;11.886;2024-03-23T05:57:22;94748.66;;;12.57;50.03
27425;BME280;15244;49.088;11.886;2024-03-23T06:02:24;94733.09;;;12.54;50.01
27425;BME280;15244;49.088;11.886;2024-03-23T06:07:24;94730.41;;;12.50;50.10
27425;BME280;15244;49.088;11.886;2024-03-23T06:12:25;94694.38;;;12.55;50.41
27425;BME280;15244;49.088;11.886;2024-03-23T06:17:26;94685.41;;;12.55;50.31
27425;BME280;15244;49.088;11.886;2024-03-23T06:22:27;94669.63;;;12.63;50.19
27425;BME280;15244;49.088;11.886;2024-03-23T06:27:28;94675.66;;;12.74;50.30
27425;BME280;15244;49.088;11.886;2024-03-23T06:32:29;94681.56;;;12.72;50.33
27425;BME280;15244;49.088;11.886;2024-03-23T06:37:30;94688.50;;;12.77;50.20
27425;BME280;15244;49.088;11.886;2024-03-23T06:42:30;94691.91;;;12.81;50.16
27425;BME280;15244;49.088;11.886;2024-03-23T06:47:31;94701.88;;;12.91;49.93
27425;BME280;15244;49.088;11.886;2024-03-23T06:52:32;94692.69;;;13.01;50.12
27425;BME280;15244;49.088;11.886;2024-03-23T06:57:32;94684.13;;;12.99;49.97
27425;BME280;15244;49.088;11.886;2024-03-23T07:02:33;94680.03;;;13.08;49.85
27425;BME280;15244;49.088;11.886;2024-03-23T07:07:33;94686.69;;;13.07;49.66
27425;BME280;15244;49.088;11.886;2024-03-23T07:12:34;94690.56;;;13.09;49.66
27425;BME280;15244;49.088;11.886;2024-03-23T07:17:35;94745.44;;;13.18;49.63
27425;BME280;15244;49.088;11.886;2024-03-23T07:22:36;94758.72;;;13.20;49.64
27425;BME280;15244;49.088;11.886;2024-03-23T07:27:37;94751.53;;;13.26;49.87
27425;BME280;15244;49.088;11.886;2024-03-23T07:32:38;94773.44;;;13.26;49.91
27425;BME280;15244;49.088;11.886;2024-03-23T07:37:39;94787.72;;;13.17;50.25
27425;BME280;15244;49.088;11.886;2024-03-23T07:42:40;94798.25;;;12.79;50.63
27425;BME280;15244;49.088;11.886;2024-03-23T07:47:41;94791.50;;;12.64;50.71
27425;BME280;15244;49.088;11.886;2024-03-23T07:52:41;94818.63;;;12.54;50.96
27425;BME280;15244;49.088;11.886;2024-03-23T07:57:42;94809.56;;;12.14;51.53
27425;BME280;15244;49.088;11.886;2024-03-23T08:02:42;94794.84;;;12.08;51.43
27425;BME280;15244;49.088;11.886;2024-03-23T08:07:43;94809.91;;;11.92;51.69
27425;BME280;15244;49.088;11.886;2024-03-23T08:12:45;94804.28;;;12.03;51.74
27425;BME280;15244;49.088;11.886;2024-03-23T08:17:46;94815.78;;;11.91;52.58
27425;BME280;15244;49.088;11.886;2024-03-23T08:22:47;94779.28;;;11.78;52.76
27425;BME280;15244;49.088;11.886;2024-03-23T08:27:48;94810.56;;;11.73;53.27
27425;BME280;15244;49.088;11.886;2024-03-23T08:32:48;94810.59;;;11.69;53.54
27425;BME280;15244;49.088;11.886;2024-03-23T08:37:49;94826.28;;;11.65;54.23
27425;BME280;15244;49.088;11.886;2024-03-23T08:42:50;94832.59;;;11.59;54.15
27425;BME280;15244;49.088;11.886;2024-03-23T08:47:51;94838.06;;;11.59;54.21
27425;BME280;15244;49.088;11.886;2024-03-23T08:52:52;94843.28;;;11.49;54.55
27425;BME280;15244;49.088;11.886;2024-03-23T08:57:53;94854.50;;;11.55;54.55
27425;BME280;15244;49.088;11.886;2024-03-23T09:02:53;94847.91;;;11.53;54.83
27425;BME280;15244;49.088;11.886;2024-03-23T09:07:54;94853.28;;;11.56;54.57
27425;BME280;15244;49.088;11.886;2024-03-23T09:12:56;94867.91;;;11.73;54.25
27425;BME280;15244;49.088;11.886;2024-03-23T09:17:59;94917.59;;;11.61;54.04
27425;BME280;15244;49.088;11.886;2024-03-23T09:22:59;94894.69;;;11.51;53.99
27425;BME280;15244;49.088;11.886;2024-03-23T09:28:00;94888.63;;;11.67;53.90
27425;BME280;15244;49.088;11.886;2024-03-23T09:33:02;94860.88;;;11.72;53.50
27425;BME280;15244;49.088;11.886;2024-03-23T09:38:04;94887.63;;;11.88;52.86
27425;BME280;15244;49.088;11.886;2024-03-23T09:43:06;94880.13;;;11.92;52.63
27425;BME280;15244;49.088;11.886;2024-03-23T09:48:08;94958.88;;;11.97;52.07
27425;BME280;15244;49.088;11.886;2024-03-23T09:53:12;94961.69;;;11.90;51.98
27425;BME280;15244;49.088;11.886;2024-03-23T09:58:17;94970.31;;;11.85;51.96
27425;BME280;15244;49.088;11.886;2024-03-23T10:03:18;94942.78;;;11.72;51.54
27425;BME280;15244;49.088;11.886;2024-03-23T10:08:18;94966.41;;;11.55;51.38
27425;BME280;15244;49.088;11.886;2024-03-23T10:13:27;95001.53;;;11.53;50.71
27425;BME280;15244;49.088;11.886;2024-03-23T10:18:29;95002.28;;;11.19;49.24
27425;BME280;15244;49.088;11.886;2024-03-23T10:23:30;95006.72;;;11.02;48.67
27425;BME280;15244;49.088;11.886;2024-03-23T10:28:31;95039.41;;;11.06;48.36
27425;BME280;15244;49.088;11.886;2024-03-23T10:33:32;95054.44;;;11.25;48.57
27425;BME280;15244;49.088;11.886;2024-03-23T10:38:34;95041.97;;;11.24;48.53
27425;BME280;15244;49.088;11.886;2024-03-23T10:43:36;95048.56;;;11.30;48.22
27425;BME280;15244;49.088;11.886;2024-03-23T10:48:37;95041.88;;;11.35;48.30
27425;BME280;15244;49.088;11.886;2024-03-23T10:53:38;95064.38;;;11.49;48.07
27425;BME280;15244;49.088;11.886;2024-03-23T10:58:47;95088.63;;;11.40;48.68
27425;BME280;15244;49.088;11.886;2024-03-23T11:03:51;95084.84;;;11.27;48.66
27425;BME280;15244;49.088;11.886;2024-03-23T11:08:53;95068.09;;;11.21;48.28
27425;BME280;15244;49.088;11.886;2024-03-23T11:13:54;95068.97;;;11.15;48.07
27425;BME280;15244;49.088;11.886;2024-03-23T11:19:33;95024.19;;;11.09;47.89
27425;BME280;15244;49.088;11.886;2024-03-23T11:24:34;95022.22;;;11.13;48.02
27425;BME280;15244;49.088;11.886;2024-03-23T11:29:35;95069.03;;;11.07;47.88
27425;BME280;15244;49.088;11.886;2024-03-23T11:34:37;95076.00;;;11.09;47.47
27425;BME280;15244;49.088;11.886;2024-03-23T11:39:39;95067.06;;;11.08;46.99
27425;BME280;15244;49.088;11.886;2024-03-23T11:44:40;95100.13;;;11.17;46.53
27425;BME280;15244;49.088;11.886;2024-03-23T11:49:41;95202.66;;;11.11;46.14
27425;BME280;15244;49.088;11.886;2024-03-23T11:54:42;95149.06;;;10.87;45.82
27425;BME280;15244;49.088;11.886;2024-03-23T11:59:43;95145.59;;;10.75;46.12
27425;BME280;15244;49.088;11.886;2024-03-23T12:04:44;95156.50;;;10.79;46.08
27425;BME280;15244;49.088;11.886;2024-03-23T12:09:46;95161.25;;;10.60;45.73
27425;BME280;15244;49.088;11.886;2024-03-23T12:15:06;95144.16;;;10.53;45.87
27425;BME280;15244;49.088;11.886;2024-03-23T12:20:08;95157.81;;;10.46;45.89
27425;BME280;15244;49.088;11.886;2024-03-23T12:25:09;95116.91;;;10.56;45.90
27425;BME280;15244;49.088;11.886;2024-03-23T12:30:10;95108.69;;;10.63;45.69
27425;BME280;15244;49.088;11.886;2024-03-23T12:35:11;95113.31;;;10.70;45.23
27425;BME280;15244;49.088;11.886;2024-03-23T12:40:12;95084.84;;;10.75;45.19
27425;BME280;15244;49.088;11.886;2024-03-23T12:45:13;95104.66;;;10.82;44.76
27425;BME280;15244;49.088;11.886;2024-03-23T12:50:14;95101.13;;;10.85;44.19
27425;BME280;15244;49.088;11.886;2024-03-23T12:55:14;95118.16;;;11.04;44.13
27425;BME280;15244;49.088;11.886;2024-03-23T13:00:15;95109.94;;;11.07;44.00
27425;BME280;15244;49.088;11.886;2024-03-23T13:05:17;95104.81;;;11.17;43.46
27425;BME280;15244;49.088;11.886;2024-03-23T13:10:18;95087.59;;;11.23;43.80
27425;BME280;15244;49.088;11.886;2024-03-23T13:15:18;95096.97;;;11.22;43.21
27425;BME280;15244;49.088;11.886;2024-03-23T13:20:20;95112.22;;;11.13;43.10
27425;BME280;15244;49.088;11.886;2024-03-23T13:25:21;95117.72;;;11.09;42.83
27425;BME280;15244;49.088;11.886;2024-03-23T13:30:22;95116.16;;;11.08;42.59
27425;BME280;15244;49.088;11.886;2024-03-23T13:35:22;95138.41;;;11.06;42.19
27425;BME280;15244;49.088;11.886;2024-03-23T13:40:23;95122.75;;;11.14;42.47
27425;BME280;15244;49.088;11.886;2024-03-23T13:45:24;95116.94;;;11.12;42.10
27425;BME280;15244;49.088;11.886;2024-03-23T13:50:25;95109.56;;;11.05;41.78
27425;BME280;15244;49.088;11.886;2024-03-23T13:55:26;95113.44;;;11.08;41.65
27425;BME280;15244;49.088;11.886;2024-03-23T14:00:27;95103.28;;;11.12;41.84
27425;BME280;15244;49.088;11.886;2024-03-23T14:05:28;95108.28;;;11.21;41.62
27425;BME280;15244;49.088;11.886;2024-03-23T14:10:28;95107.06;;;11.25;41.68
27425;BME280;15244;49.088;11.886;2024-03-23T14:15:29;95086.47;;;11.17;40.74
27425;BME280;15244;49.088;11.886;2024-03-23T14:20:33;95105.59;;;11.14;40.42
27425;BME280;15244;49.088;11.886;2024-03-23T14:25:34;95100.09;;;11.21;41.14
27425;BME280;15244;49.088;11.886;2024-03-23T14:30:34;95104.66;;;11.31;40.83
27425;BME280;15244;49.088;11.886;2024-03-23T14:35:35;95095.66;;;11.38;40.93
27425;BME280;15244;49.088;11.886;2024-03-23T14:40:36;95093.31;;;11.40;40.77
27425;BME280;15244;49.088;11.886;2024-03-23T14:45:37;95087.44;;;11.41;40.59
27425;BME280;15244;49.088;11.886;2024-03-23T14:50:37;95082.34;;;11.43;40.60
27425;BME280;15244;49.088;11.886;2024-03-23T14:55:38;95079.22;;;11.45;40.62
27425;BME280;15244;49.088;11.886;2024-03-23T15:00:40;95064.38;;;11.49;40.70
27425;BME280;15244;49.088;11.886;2024-03-23T15:05:41;95058.59;;;11.40;40.29
27425;BME280;15244;49.088;11.886;2024-03-23T15:10:42;95062.09;;;11.41;40.03
27425;BME280;15244;49.088;11.886;2024-03-23T15:15:43;95045.78;;;11.34;39.77
27425;BME280;15244;49.088;11.886;2024-03-23T15:20:53;95046.47;;;11.45;39.59
27425;BME280;15244;49.088;11.886;2024-03-23T15:26:01;95056.25;;;11.42;38.38
27425;BME280;15244;49.088;11.886;2024-03-23T15:31:02;95060.06;;;11.52;39.58
27425;BME280;15244;49.088;11.886;2024-03-23T15:36:03;95055.50;;;11.38;38.05
27425;BME280;15244;49.088;11.886;2024-03-23T15:41:04;95049.97;;;11.45;39.13
27425;BME280;15244;49.088;11.886;2024-03-23T15:46:05;95061.22;;;11.51;39.40
27425;BME280;15244;49.088;11.886;2024-03-23T15:51:10;95063.69;;;11.38;39.09
27425;BME280;15244;49.088;11.886;2024-03-23T15:56:11;95056.75;;;11.30;39.20
27425;BME280;15244;49.088;11.886;2024-03-23T16:01:13;95041.53;;;11.29;39.74
27425;BME280;15244;49.088;11.886;2024-03-23T16:06:14;95032.13;;;11.34;39.85
27425;BME280;15244;49.088;11.886;2024-03-23T16:11:15;95031.94;;;11.14;38.31
27425;BME280;15244;49.088;11.886;2024-03-23T16:16:15;95057.00;;;10.98;38.66
27425;BME280;15244;49.088;11.886;2024-03-23T16:21:16;95147.19;;;10.69;40.54
27425;BME280;15244;49.088;11.886;2024-03-23T16:26:18;95137.63;;;10.32;42.29
27425;BME280;15244;49.088;11.886;2024-03-23T16:31:18;95127.22;;;10.02;42.78
27425;BME280;15244;49.088;11.886;2024-03-23T16:36:19;95124.56;;;9.81;43.89
27425;BME280;15244;49.088;11.886;2024-03-23T16:41:20;95103.97;;;9.62;44.15
27425;BME280;15244;49.088;11.886;2024-03-23T16:46:20;95105.94;;;9.54;44.62
27425;BME280;15244;49.088;11.886;2024-03-23T16:51:21;95116.81;;;9.54;45.38
27425;BME280;15244;49.088;11.886;2024-03-23T16:56:22;95121.09;;;9.59;45.08
27425;BME280;15244;49.088;11.886;2024-03-23T17:01:22;95132.75;;;9.59;45.31
27425;BME280;15244;49.088;11.886;2024-03-23T17:06:24;95140.53;;;9.61;46.01
27425;BME280;15244;49.088;11.886;2024-03-23T17:11:25;95156.09;;;9.60;45.87
27425;BME280;15244;49.088;11.886;2024-03-23T17:16:26;95168.53;;;9.50;45.80
27425;BME280;15244;49.088;11.886;2024-03-23T17:21:30;95176.31;;;9.45;45.84
27425;BME280;15244;49.088;11.886;2024-03-23T17:26:31;95168.94;;;9.45;46.00
27425;BME280;15244;49.088;11.886;2024-03-23T17:31:34;95162.69;;;9.41;46.10
27425;BME280;15244;49.088;11.886;2024-03-23T17:36:34;95163.88;;;9.40;46.11
27425;BME280;15244;49.088;11.886;2024-03-23T17:41:36;95167.75;;;9.39;45.91
27425;BME280;15244;49.088;11.886;2024-03-23T17:46:37;95165.03;;;9.28;45.79
27425;BME280;15244;49.088;11.886;2024-03-23T17:51:38;95165.03;;;9.21;45.46
27425;BME280;15244;49.088;11.886;2024-03-23T17:56:39;95168.53;;;9.18;45.52
27425;BME280;15244;49.088;11.886;2024-03-23T18:01:39;95176.31;;;9.20;45.18
27425;BME280;15244;49.088;11.886;2024-03-23T18:06:40;95192.22;;;9.10;45.09
27425;BME280;15244;49.088;11.886;2024-03-23T18:11:41;95198.41;;;9.04;44.87
27425;BME280;15244;49.088;11.886;2024-03-23T18:16:42;95194.53;;;9.01;44.83
27425;BME280;15244;49.088;11.886;2024-03-23T18:21:44;95200.75;;;8.95;44.84
27425;BME280;15244;49.088;11.886;2024-03-23T18:26:45;95192.19;;;8.89;44.68
27425;BME280;15244;49.088;11.886;2024-03-23T18:31:45;95193.34;;;8.88;44.72
27425;BME280;15244;49.088;11.886;2024-03-23T18:36:46;95201.53;;;8.95;44.74
27425;BME280;15244;49.088;11.886;2024-03-23T18:41:47;95196.84;;;8.96;44.46
27425;BME280;15244;49.088;11.886;2024-03-23T18:46:47;95194.16;;;8.99;44.40
27425;BME280;15244;49.088;11.886;2024-03-23T18:51:48;95191.03;;;8.94;44.31
27425;BME280;15244;49.088;11.886;2024-03-23T18:56:49;95178.59;;;8.93;44.52
27425;BME280;15244;49.088;11.886;2024-03-23T19:01:49;95182.50;;;8.92;44.55
27425;BME280;15244;49.088;11.886;2024-03-23T19:06:50;95183.66;;;8.87;44.61
27425;BME280;15244;49.088;11.886;2024-03-23T19:11:51;95178.97;;;8.80;44.75
27425;BME280;15244;49.088;11.886;2024-03-23T19:16:51;95172.72;;;8.73;44.87
27425;BME280;15244;49.088;11.886;2024-03-23T19:21:54;95170.00;;;8.58;45.01
27425;BME280;15244;49.088;11.886;2024-03-23T19:26:54;95163.38;;;8.52;45.04
27425;BME280;15244;49.088;11.886;2024-03-23T19:31:55;95166.06;;;8.45;45.49
27425;BME280;15244;49.088;11.886;2024-03-23T19:36:56;95161.03;;;8.47;45.86
27425;BME280;15244;49.088;11.886;2024-03-23T19:41:59;95162.59;;;8.52;45.59
27425;BME280;15244;49.088;11.886;2024-03-23T19:47:00;95159.09;;;8.51;45.65
27425;BME280;15244;49.088;11.886;2024-03-23T19:52:01;95162.94;;;8.43;45.71
27425;BME280;15244;49.088;11.886;2024-03-23T19:57:04;95167.53;;;8.32;45.65
27425;BME280;15244;49.088;11.886;2024-03-23T20:02:05;95170.19;;;8.17;46.40
27425;BME280;15244;49.088;11.886;2024-03-23T20:07:06;95174.69;;;7.88;46.80
27425;BME280;15244;49.088;11.886;2024-03-23T20:12:07;95168.34;;;7.63;47.88
27425;BME280;15244;49.088;11.886;2024-03-23T20:17:08;95169.06;;;7.56;48.09
27425;BME280;15244;49.088;11.886;2024-03-23T20:22:09;95176.38;;;7.52;48.19
27425;BME280;15244;49.088;11.886;2024-03-23T20:27:09;95177.47;;;7.40;48.65
27425;BME280;15244;49.088;11.886;2024-03-23T20:32:10;95170.06;;;7.33;48.77
27425;BME280;15244;49.088;11.886;2024-03-23T20:37:11;95166.94;;;7.31;48.66
27425;BME280;15244;49.088;11.886;2024-03-23T20:42:11;95152.25;;;7.32;48.99
27425;BME280;15244;49.088;11.886;2024-03-23T20:47:12;95148.00;;;7.35;49.43
27425;BME280;15244;49.088;11.886;2024-03-23T20:52:13;95152.25;;;7.36;49.40
27425;BME280;15244;49.088;11.886;2024-03-23T20:57:14;95155.00;;;7.40;49.68
27425;BME280;15244;49.088;11.886;2024-03-23T21:02:14;95141.47;;;7.43;49.09
27425;BME280;15244;49.088;11.886;2024-03-23T21:07:15;95147.25;;;7.38;49.28
27425;BME280;15244;49.088;11.886;2024-03-23T21:12:16;95139.09;;;7.34;49.52
27425;BME280;15244;49.088;11.886;2024-03-23T21:17:16;95149.84;;;7.24;49.60
27425;BME280;15244;49.088;11.886;2024-03-23T21:22:17;95150.44;;;6.99;49.79
27425;BME280;15244;49.088;11.886;2024-03-23T21:27:18;95157.25;;;6.86;50.00
27425;BME280;15244;49.088;11.886;2024-03-23T21:32:19;95139.44;;;6.85;50.02
27425;BME280;15244;49.088;11.886;2024-03-23T21:37:21;95134.84;;;6.89;50.08
27425;BME280;15244;49.088;11.886;2024-03-23T21:42:23;95140.16;;;6.78;49.84
27425;BME280;15244;49.088;11.886;2024-03-23T21:47:24;95145.97;;;6.80;49.61
27425;BME280;15244;49.088;11.886;2024-03-23T21:52:25;95152.94;;;6.78;50.18
27425;BME280;15244;49.088;11.886;2024-03-23T21:57:26;95137.00;;;6.72;50.05
27425;BME280;15244;49.088;11.886;2024-03-23T22:02:26;95131.84;;;6.57;50.85
27425;BME280;15244;49.088;11.886;2024-03-23T22:07:28;95137.06;;;6.39;51.19
27425;BME280;15244;49.088;11.886;2024-03-23T22:12:31;95138.81;;;6.20;52.12
27425;BME280;15244;49.088;11.886;2024-03-23T22:17:40;95128.53;;;6.03;52.30
27425;BME280;15244;49.088;11.886;2024-03-23T22:22:41;95113.56;;;6.13;51.38
27425;BME280;15244;49.088;11.886;2024-03-23T22:27:42;95121.56;;;6.02;52.16
27425;BME280;15244;49.088;11.886;2024-03-23T22:32:47;95112.75;;;6.08;51.63
27425;BME280;15244;49.088;11.886;2024-03-23T22:37:48;95111.59;;;6.10;51.67
27425;BME280;15244;49.088;11.886;2024-03-23T22:42:49;95117.78;;;6.10;51.80
27425;BME280;15244;49.088;11.886;2024-03-23T22:47:50;95124.72;;;6.07;51.53
27425;BME280;15244;49.088;11.886;2024-03-23T22:52:51;95120.47;;;6.06;51.72
27425;BME280;15244;49.088;11.886;2024-03-23T22:57:51;95142.13;;;6.10;52.20
27425;BME280;15244;49.088;11.886;2024-03-23T23:02:52;95128.94;;;6.05;51.98
27425;BME280;15244;49.088;11.886;2024-03-23T23:07:53;95122.56;;;6.20;51.83
27425;BME280;15244;49.088;11.886;2024-03-23T23:12:54;95127.91;;;6.17;52.01
27425;BME280;15244;49.088;11.886;2024-03-23T23:17:55;95120.50;;;6.10;52.00
27425;BME280;15244;49.088;11.886;2024-03-23T23:22:56;95114.59;;;6.01;52.07
27425;BME280;15244;49.088;11.886;2024-03-23T23:27:56;95112.44;;;6.14;51.94
27425;BME280;15244;49.088;11.886;2024-03-23T23:32:57;95104.66;;;6.12;52.21
27425;BME280;15244;49.088;11.886;2024-03-23T23:37:58;95106.69;;;6.19;51.71
27425;BME280;15244;49.088;11.886;2024-03-23T23:42:59;95099.31;;;6.16;52.00
27425;BME280;15244;49.088;11.886;2024-03-23T23:47:59;95108.97;;;6.17;51.94
27425;BME280;15244;49.088;11.886;2024-03-23T23:53:00;95083.75;;;6.09;51.58
27425;BME280;15244;49.088;11.886;2024-03-23T23:58:01;95082.31;;;6.19;51.88
